Iola, Colorado
Current Conditions -  °F | °C
As of 7:15 PM on Saturday 25 Oct 2014 (Local Time) from KGUC Reporting Station
Clear Clear  
Wind Chill: 55°   Ceiling: Unl
Heat Index: 55°   Visibility: 10mi
Dew Point: 27°   Wind: 0mph
Humidity: 33%   Direction: NA
Pressure: 30.27"   Gusts: NA
Location:  38.5539°N, 107.09°W
Report Text: KGUC 260115Z AUTO 00000KT 10SM CLR 13/M03 A3027 RMK AO1
Loading
Personal Weather Stations






























Interactive Weather Map
Tropical Storm Tracking
New forecast layout! Learn more

10-Day Weather Forecast

Advertisements
Track Severe Weather on mobile